Time;durP1;ratioP1;P1;durP2;ratioP2;P2;SDS_P1;SDS_P2;PMS_P1;PMS_P2;Temp;Humidity;BMP_temperature;BMP_pressure;BME280_temperature;BME280_humidity;BME280_pressure;Samples;Min_cycle;Max_cycle;Signal;HPM_P1;HPM_P2
2022/05/18 00:00:07;;;;;;;4.25;3.85;;;17.20;99.90;;;;;;5009599;28;20437;-60
2022/05/18 00:02:33;;;;;;;4.30;3.92;;;17.10;99.90;;;;;;5010493;28;20206;-61
2022/05/18 00:04:59;;;;;;;3.60;3.30;;;17.20;99.90;;;;;;5009377;28;20209;-60
2022/05/18 00:07:24;;;;;;;7.83;3.53;;;17.10;99.90;;;;;;5009407;28;20457;-60
2022/05/18 00:09:51;;;;;;;4.27;3.87;;;17.10;99.90;;;;;;5008477;28;20599;-60
2022/05/18 00:12:18;;;;;;;4.60;4.20;;;17.30;99.90;;;;;;5010491;28;20191;-61
2022/05/18 00:14:44;;;;;;;4.85;3.80;;;17.00;99.90;;;;;;5009099;28;20240;-60
2022/05/18 00:17:10;;;;;;;3.90;3.60;;;17.00;99.90;;;;;;5007660;28;20207;-62
2022/05/18 00:19:36;;;;;;;4.55;3.88;;;17.20;99.90;;;;;;5010079;28;20246;-60
2022/05/18 00:22:02;;;;;;;4.18;3.88;;;16.80;99.90;;;;;;5005164;28;20700;-60
2022/05/18 00:24:28;;;;;;;3.93;3.63;;;17.00;99.90;;;;;;5010708;28;20269;-60
2022/05/18 00:26:54;;;;;;;3.70;3.40;;;17.00;99.90;;;;;;5009523;28;20468;-60
2022/05/18 00:29:19;;;;;;;4.28;3.88;;;17.00;99.90;;;;;;5008880;28;20191;-60
2022/05/18 00:31:48;;;;;;;3.70;3.40;;;16.90;99.90;;;;;;5009529;28;20210;-60
2022/05/18 00:34:16;;;;;;;3.90;3.60;;;17.00;99.90;;;;;;5010064;28;20217;-60
2022/05/18 00:36:42;;;;;;;3.50;3.20;;;16.90;99.90;;;;;;5008703;28;20520;-60
2022/05/18 00:39:08;;;;;;;3.90;3.60;;;16.90;99.90;;;;;;5009940;28;20676;-60
2022/05/18 00:41:35;;;;;;;5.15;3.30;;;16.70;99.90;;;;;;5009938;28;20743;-61
2022/05/18 00:44:00;;;;;;;4.82;3.80;;;16.70;99.90;;;;;;5006500;28;20184;-60
2022/05/18 00:46:26;;;;;;;4.07;3.70;;;16.80;99.90;;;;;;5007971;28;20261;-60
2022/05/18 00:48:53;;;;;;;6.00;3.70;;;16.70;99.90;;;;;;5007684;28;20203;-60
2022/05/18 00:51:48;;;;;;;4.07;3.60;;;16.70;99.90;;;;;;5010504;28;20194;-59
2022/05/18 00:54:28;;;;;;;4.38;3.60;;;16.60;99.90;;;;;;5003090;28;20218;-61
2022/05/18 00:57:28;;;;;;;3.67;3.38;;;16.50;99.90;;;;;;5009300;28;20292;-61
2022/05/18 01:00:00;;;;;;;5.30;3.70;;;16.60;99.90;;;;;;5008582;28;20222;-60
2022/05/18 01:02:30;;;;;;;4.93;4.20;;;16.70;99.90;;;;;;5009451;28;20198;-59
2022/05/18 01:04:58;;;;;;;4.00;3.70;;;16.50;99.90;;;;;;5009053;28;20239;-61
2022/05/18 01:07:33;;;;;;;4.05;3.65;;;16.50;99.90;;;;;;5010005;28;20251;-59
2022/05/18 01:09:59;;;;;;;5.40;4.85;;;16.50;99.90;;;;;;5008263;28;20185;-60
2022/05/18 01:12:25;;;;;;;4.50;3.80;;;16.60;99.90;;;;;;5012221;28;20190;-60
2022/05/18 01:14:52;;;;;;;4.13;3.73;;;16.40;99.90;;;;;;5009108;28;20187;-60
2022/05/18 01:17:23;;;;;;;4.13;3.67;;;16.60;99.90;;;;;;5005975;28;20473;-60
2022/05/18 01:19:54;;;;;;;4.40;3.85;;;16.40;99.90;;;;;;5008250;28;20214;-61
2022/05/18 01:22:44;;;;;;;4.05;3.67;;;16.50;99.90;;;;;;5008538;28;20223;-60
2022/05/18 01:25:31;;;;;;;4.30;3.90;;;16.40;99.90;;;;;;5003050;28;20187;-60
2022/05/18 01:27:58;;;;;;;4.85;4.10;;;16.30;99.90;;;;;;5005894;28;20251;-60
2022/05/18 01:30:26;;;;;;;4.40;4.00;;;16.30;99.90;;;;;;5008812;28;20191;-60
2022/05/18 01:32:54;;;;;;;4.65;4.25;;;16.40;99.90;;;;;;5009620;28;20194;-60
2022/05/18 01:35:26;;;;;;;4.75;4.35;;;16.60;99.90;;;;;;5012873;28;20205;-59
2022/05/18 01:37:57;;;;;;;4.30;3.90;;;16.40;99.90;;;;;;5012472;28;20597;-60
2022/05/18 01:40:50;;;;;;;4.10;3.80;;;16.20;99.90;;;;;;5027234;28;20193;-60
2022/05/18 01:43:21;;;;;;;4.30;3.90;;;16.20;99.90;;;;;;5010262;28;20186;-60
2022/05/18 01:45:51;;;;;;;4.22;3.90;;;16.10;99.90;;;;;;5012331;28;20187;-60
2022/05/18 01:48:20;;;;;;;4.47;4.18;;;16.10;99.90;;;;;;5012760;28;20214;-60
2022/05/18 01:50:47;;;;;;;4.82;4.43;;;16.20;99.90;;;;;;5012169;28;20194;-61
2022/05/18 01:53:12;;;;;;;4.32;3.92;;;16.30;99.90;;;;;;5012301;28;20191;-60
2022/05/18 01:55:38;;;;;;;5.67;4.17;;;16.10;99.90;;;;;;5011304;28;20206;-60
2022/05/18 01:58:04;;;;;;;4.23;3.93;;;16.20;99.90;;;;;;5012490;28;20209;-60
2022/05/18 02:00:32;;;;;;;4.68;3.75;;;16.20;99.90;;;;;;5010949;28;20201;-60
2022/05/18 02:02:58;;;;;;;5.00;4.25;;;16.00;99.90;;;;;;5012390;28;20187;-61
2022/05/18 02:05:24;;;;;;;5.47;4.35;;;15.60;99.90;;;;;;5012412;28;20190;-61
2022/05/18 02:07:50;;;;;;;5.45;4.05;;;15.90;99.90;;;;;;5013558;28;20207;-61
2022/05/18 02:10:16;;;;;;;4.73;4.20;;;16.00;99.90;;;;;;5012214;28;20728;-61
2022/05/18 02:12:42;;;;;;;5.63;4.88;;;16.00;99.90;;;;;;5012480;28;20437;-60
2022/05/18 02:15:08;;;;;;;4.40;4.03;;;16.00;99.90;;;;;;5011092;28;20241;-61
2022/05/18 02:17:35;;;;;;;4.60;4.20;;;15.90;99.90;;;;;;5011647;28;20203;-60
2022/05/18 02:20:00;;;;;;;5.47;4.90;;;15.90;99.90;;;;;;5011631;28;20692;-61
2022/05/18 02:22:26;;;;;;;4.50;4.10;;;16.10;99.90;;;;;;5010790;28;20191;-61
2022/05/18 02:24:52;;;;;;;4.60;4.20;;;15.90;99.90;;;;;;5010982;28;20182;-60
2022/05/18 02:27:18;;;;;;;5.43;4.90;;;16.10;99.90;;;;;;5011932;28;20457;-61
2022/05/18 02:29:44;;;;;;;5.07;4.57;;;15.90;99.90;;;;;;5010463;28;20191;-61
2022/05/18 02:32:09;;;;;;;4.60;3.80;;;16.10;99.90;;;;;;5011728;28;20879;-61
2022/05/18 02:34:36;;;;;;;5.70;4.67;;;15.60;99.90;;;;;;5008468;28;20472;-61
2022/05/18 02:37:03;;;;;;;4.53;4.22;;;16.00;99.90;;;;;;5004411;28;20457;-61
2022/05/18 02:39:29;;;;;;;4.43;4.03;;;15.90;99.90;;;;;;5011018;28;20711;-60
2022/05/18 02:41:54;;;;;;;4.55;4.13;;;15.90;99.90;;;;;;5011625;28;20699;-61
2022/05/18 02:44:20;;;;;;;4.73;4.37;;;16.00;99.90;;;;;;5010446;28;20226;-61
2022/05/18 02:46:46;;;;;;;4.55;4.15;;;16.00;99.90;;;;;;5010461;28;20186;-61
2022/05/18 02:49:12;;;;;;;5.30;4.80;;;15.90;99.90;;;;;;5010464;28;20660;-61
2022/05/18 02:51:39;;;;;;;7.63;4.87;;;15.60;99.90;;;;;;5011139;28;20187;-65
2022/05/18 02:56:05;;;;;;;5.35;4.85;;;15.70;99.90;;;;;;5011590;28;20487;-61
2022/05/18 02:56:52;;;;;;;5.88;4.25;;;15.70;99.90;;;;;;5010949;28;20207;-62
2022/05/18 02:59:19;;;;;;;5.35;4.85;;;15.90;99.90;;;;;;5010778;28;20210;-61
2022/05/18 03:01:45;;;;;;;5.15;4.75;;;15.70;99.90;;;;;;5003895;28;20183;-61
2022/05/18 03:04:11;;;;;;;5.97;4.78;;;15.70;99.90;;;;;;5026862;28;20565;-61
2022/05/18 03:06:37;;;;;;;5.68;4.72;;;15.80;99.90;;;;;;5010325;28;20725;-61
2022/05/18 03:09:03;;;;;;;5.53;4.93;;;15.90;99.90;;;;;;5010920;28;20325;-60
2022/05/18 03:11:28;;;;;;;4.77;4.40;;;15.80;99.90;;;;;;5011408;28;20413;-60
2022/05/18 03:13:54;;;;;;;7.77;4.80;;;15.70;99.90;;;;;;5011527;28;20442;-60
2022/05/18 03:16:20;;;;;;;6.20;5.07;;;15.60;99.90;;;;;;5009039;28;20202;-62
2022/05/18 03:18:45;;;;;;;4.87;4.47;;;15.80;99.90;;;;;;5010116;28;20345;-60
2022/05/18 03:23:55;;;;;;;5.18;4.65;;;15.60;99.90;;;;;;5010833;28;20205;-60
2022/05/18 03:26:23;;;;;;;5.87;4.60;;;15.50;99.90;;;;;;5010835;28;20194;-60
2022/05/18 03:28:51;;;;;;;4.65;4.30;;;15.70;99.90;;;;;;5010367;28;20207;-60
2022/05/18 03:31:18;;;;;;;5.90;5.40;;;15.70;99.90;;;;;;5009124;28;20194;-61
2022/05/18 03:33:44;;;;;;;4.43;4.10;;;15.50;99.90;;;;;;5010439;28;20191;-62
2022/05/18 03:36:12;;;;;;;4.88;4.30;;;15.40;99.90;;;;;;5024709;28;20652;-61
2022/05/18 03:38:38;;;;;;;3.92;3.63;;;15.40;99.90;;;;;;5009816;28;20249;-61
2022/05/18 03:41:04;;;;;;;5.10;4.65;;;15.30;99.90;;;;;;5011110;28;20270;-61
2022/05/18 03:43:30;;;;;;;5.10;4.70;;;15.60;99.90;;;;;;5009906;28;20619;-61
2022/05/18 03:45:55;;;;;;;5.13;4.77;;;15.60;99.90;;;;;;5010008;28;20703;-61
2022/05/18 03:48:21;;;;;;;5.47;4.60;;;15.20;99.90;;;;;;5010028;28;20454;-61
2022/05/18 03:50:48;;;;;;;5.77;4.57;;;15.20;99.90;;;;;;5010191;28;20445;-61
2022/05/18 03:53:15;;;;;;;5.60;5.07;;;15.60;99.90;;;;;;5003826;28;20179;-60
2022/05/18 03:55:43;;;;;;;5.20;4.80;;;15.70;99.90;;;;;;5009969;28;20209;-61
2022/05/18 03:58:09;;;;;;;5.68;4.47;;;15.40;99.90;;;;;;5009718;28;20265;-61
2022/05/18 04:00:36;;;;;;;5.03;4.63;;;15.40;99.90;;;;;;5010060;28;20179;-61
2022/05/18 04:03:03;;;;;;;6.72;5.60;;;15.20;99.90;;;;;;5004354;28;20214;-60
2022/05/18 04:05:30;;;;;;;5.57;5.07;;;15.30;99.90;;;;;;5009373;28;20585;-61
2022/05/18 04:07:56;;;;;;;5.47;4.90;;;15.30;99.90;;;;;;5009462;28;20206;-62
2022/05/18 04:10:22;;;;;;;6.15;5.45;;;15.40;99.90;;;;;;5009887;28;20198;-61
2022/05/18 04:12:48;;;;;;;5.75;4.95;;;15.60;99.90;;;;;;5008411;28;20227;-61
2022/05/18 04:15:16;;;;;;;5.30;4.80;;;15.40;99.90;;;;;;5008138;28;20222;-62
2022/05/18 04:17:44;;;;;;;6.03;5.35;;;15.60;99.90;;;;;;5010791;28;20210;-62
2022/05/18 04:20:16;;;;;;;5.70;5.20;;;15.50;99.90;;;;;;5010253;28;20237;-61
2022/05/18 04:22:42;;;;;;;6.18;5.68;;;15.60;99.90;;;;;;5008151;28;20179;-62
2022/05/18 04:25:09;;;;;;;4.80;4.40;;;15.60;99.90;;;;;;5009543;28;20516;-62
2022/05/18 04:27:34;;;;;;;5.38;4.88;;;15.50;99.90;;;;;;5009975;28;21008;-62
2022/05/18 04:30:00;;;;;;;5.87;5.27;;;15.80;99.90;;;;;;5008548;28;20226;-62
2022/05/18 04:32:26;;;;;;;7.20;4.87;;;15.60;99.90;;;;;;5007999;28;20186;-62
2022/05/18 04:34:51;;;;;;;6.60;5.47;;;15.60;99.90;;;;;;5007162;28;20190;-62
2022/05/18 04:37:18;;;;;;;5.90;5.30;;;15.80;99.90;;;;;;5008171;28;20210;-62
2022/05/18 04:39:44;;;;;;;5.85;5.07;;;15.80;99.90;;;;;;5010019;28;20310;-62
2022/05/18 04:42:10;;;;;;;4.97;4.57;;;15.60;99.90;;;;;;5009321;28;20262;-62
2022/05/18 04:44:37;;;;;;;5.85;5.35;;;16.00;99.90;;;;;;5009099;28;20205;-62
2022/05/18 04:47:04;;;;;;;6.20;5.60;;;16.30;99.90;;;;;;5005661;28;20246;-62
2022/05/18 04:49:30;;;;;;;5.47;4.97;;;15.90;99.90;;;;;;5005122;28;20199;-61
2022/05/18 04:51:55;;;;;;;6.90;5.20;;;15.90;99.90;;;;;;5006603;28;20195;-67
2022/05/18 04:54:21;;;;;;;5.77;5.27;;;15.90;99.90;;;;;;5005642;28;20565;-68
2022/05/18 04:56:47;;;;;;;5.00;4.30;;;16.00;99.90;;;;;;5009570;28;20240;-68
2022/05/18 04:59:13;;;;;;;6.70;5.20;;;15.80;99.90;;;;;;5007607;28;20215;-67
2022/05/18 05:01:39;;;;;;;5.63;5.17;;;16.00;99.90;;;;;;5005595;28;20541;-66
2022/05/18 05:04:09;;;;;;;5.80;5.30;;;16.10;99.90;;;;;;5005750;28;20183;-67
2022/05/18 05:06:39;;;;;;;7.57;5.80;;;16.00;99.90;;;;;;5006179;28;20508;-60
2022/05/18 05:09:05;;;;;;;5.75;5.13;;;16.40;99.90;;;;;;5009719;28;20222;-69
2022/05/18 05:11:31;;;;;;;6.93;5.75;;;16.30;99.90;;;;;;5011796;28;20195;-67
2022/05/18 05:13:56;;;;;;;8.60;6.47;;;16.40;99.90;;;;;;5010325;28;20190;-68
2022/05/18 05:16:22;;;;;;;6.67;4.83;;;16.70;99.90;;;;;;5011714;28;20534;-69
2022/05/18 05:18:48;;;;;;;6.73;5.67;;;16.70;99.90;;;;;;5010674;28;20236;-71
2022/05/18 05:21:14;;;;;;;5.87;4.87;;;16.80;99.90;;;;;;5012627;28;20448;-69
2022/05/18 05:23:39;;;;;;;6.30;5.63;;;17.00;99.90;;;;;;5011611;28;20187;-68
2022/05/18 05:26:05;;;;;;;5.77;5.27;;;17.10;99.90;;;;;;5011821;28;20459;-65
2022/05/18 05:28:31;;;;;;;5.65;5.07;;;17.30;99.90;;;;;;5012917;28;20221;-65
2022/05/18 05:31:02;;;;;;;5.00;4.60;;;17.30;99.90;;;;;;5010442;28;20187;-66
2022/05/18 05:33:28;;;;;;;5.90;5.25;;;17.60;99.90;;;;;;5007453;28;20212;-65
2022/05/18 05:35:54;;;;;;;5.53;5.03;;;17.80;99.90;;;;;;5011920;28;20647;-68
2022/05/18 05:38:19;;;;;;;5.70;5.20;;;17.90;99.90;;;;;;5011168;28;20504;-66
2022/05/18 05:40:46;;;;;;;5.30;4.90;;;18.00;99.90;;;;;;5009729;28;20206;-62
2022/05/18 05:43:12;;;;;;;5.82;5.32;;;17.90;99.90;;;;;;5010635;28;20209;-62
2022/05/18 05:45:38;;;;;;;5.88;5.20;;;18.20;99.90;;;;;;5009748;28;20198;-64
2022/05/18 05:48:06;;;;;;;7.53;5.57;;;18.30;99.90;;;;;;5011526;28;20199;-64
2022/05/18 05:50:31;;;;;;;5.57;5.05;;;18.40;99.90;;;;;;5007140;28;20249;-63
2022/05/18 05:52:58;;;;;;;6.90;6.00;;;19.00;99.90;;;;;;5008269;28;20187;-69
2022/05/18 05:55:24;;;;;;;5.97;5.47;;;18.70;99.90;;;;;;5011908;28;20659;-69
2022/05/18 05:57:53;;;;;;;5.85;5.35;;;18.90;99.90;;;;;;5008067;28;20302;-60
2022/05/18 06:00:19;;;;;;;6.47;5.97;;;19.10;99.90;;;;;;5009571;28;20278;-72
2022/05/18 06:02:44;;;;;;;5.53;5.03;;;19.30;99.90;;;;;;5011405;28;20741;-71
2022/05/18 06:05:10;;;;;;;5.53;4.73;;;19.40;99.90;;;;;;5009841;28;20787;-70
2022/05/18 06:07:36;;;;;;;7.67;5.37;;;19.50;99.90;;;;;;5011536;28;20461;-70
2022/05/18 06:10:02;;;;;;;5.40;4.87;;;19.70;99.90;;;;;;5018059;28;20202;-63
2022/05/18 06:12:28;;;;;;;9.70;5.45;;;19.80;99.90;;;;;;5009770;28;20202;-65
2022/05/18 06:14:54;;;;;;;6.00;5.50;;;20.20;99.90;;;;;;5010305;28;20191;-69
2022/05/18 06:17:20;;;;;;;5.83;5.33;;;20.00;99.00;;;;;;5025115;28;20277;-68
2022/05/18 06:19:45;;;;;;;8.13;5.40;;;20.10;98.60;;;;;;5008172;28;20481;-63
2022/05/18 06:22:11;;;;;;;9.03;5.30;;;20.30;98.70;;;;;;5010119;28;20945;-63
2022/05/18 06:24:37;;;;;;;6.30;5.17;;;20.40;98.00;;;;;;5009745;28;20194;-66
2022/05/18 06:27:03;;;;;;;8.48;4.90;;;20.50;97.70;;;;;;5007441;28;20222;-63
2022/05/18 06:29:29;;;;;;;5.97;5.18;;;20.60;97.70;;;;;;5009022;28;20187;-64
2022/05/18 06:31:56;;;;;;;10.93;9.83;;;20.80;97.40;;;;;;5008801;28;20187;-63
2022/05/18 06:34:22;;;;;;;5.45;4.95;;;21.10;96.90;;;;;;5009363;28;20182;-63
2022/05/18 06:36:50;;;;;;;4.90;4.20;;;21.20;96.40;;;;;;5008863;28;20205;-64
2022/05/18 06:39:18;;;;;;;4.32;3.85;;;21.30;94.90;;;;;;5007550;28;20531;-65
2022/05/18 06:41:45;;;;;;;4.07;3.67;;;21.60;94.40;;;;;;5009505;28;20240;-64
2022/05/18 06:44:11;;;;;;;3.73;3.43;;;21.90;93.80;;;;;;5008585;28;20524;-67
2022/05/18 06:46:38;;;;;;;4.23;3.60;;;22.10;92.50;;;;;;5013432;28;20532;-64
2022/05/18 06:49:05;;;;;;;3.53;3.33;;;22.30;92.10;;;;;;5010077;28;20257;-65
2022/05/18 06:51:39;;;;;;;4.83;3.90;;;22.50;91.40;;;;;;5009289;28;20449;-63
2022/05/18 06:54:05;;;;;;;5.20;3.90;;;22.80;91.10;;;;;;5009174;28;20575;-62
2022/05/18 06:56:35;;;;;;;6.40;3.30;;;23.10;90.60;;;;;;5008879;28;21235;-62
2022/05/18 06:59:01;;;;;;;4.73;4.10;;;23.60;90.00;;;;;;5010869;28;20462;-61
2022/05/18 07:01:28;;;;;;;4.50;3.93;;;24.60;87.60;;;;;;5010842;28;20447;-66
2022/05/18 07:03:54;;;;;;;3.97;3.57;;;26.30;82.50;;;;;;5006791;28;20445;-60
2022/05/18 07:06:22;;;;;;;4.30;3.80;;;29.50;73.50;;;;;;5005954;28;20447;-59
2022/05/18 07:08:51;;;;;;;4.30;3.90;;;31.20;63.60;;;;;;5010601;28;20477;-58
2022/05/18 07:11:17;;;;;;;3.90;3.60;;;32.40;59.30;;;;;;5005493;28;20445;-66
2022/05/18 07:13:43;;;;;;;5.53;4.13;;;33.70;54.90;;;;;;5006247;28;20454;-67
2022/05/18 07:16:09;;;;;;;3.47;3.17;;;34.50;51.20;;;;;;5021606;28;20537;-67
2022/05/18 07:18:35;;;;;;;3.63;3.33;;;36.00;48.20;;;;;;5009970;28;20560;-67
2022/05/18 07:21:04;;;;;;;4.30;3.90;;;38.00;45.40;;;;;;5005289;28;20461;-63
2022/05/18 07:23:30;;;;;;;4.43;4.03;;;39.80;41.90;;;;;;5007094;28;20466;-72
2022/05/18 07:25:57;;;;;;;3.63;3.33;;;40.80;39.50;;;;;;5009230;28;20434;-70
2022/05/18 07:28:24;;;;;;;4.63;4.10;;;39.70;37.80;;;;;;5001014;28;20522;-68
2022/05/18 07:30:51;;;;;;;5.83;3.90;;;39.80;38.00;;;;;;5010278;28;20445;-70
2022/05/18 07:33:18;;;;;;;3.50;3.27;;;41.60;36.40;;;;;;5006954;28;20918;-69
2022/05/18 07:35:44;;;;;;;5.43;3.10;;;40.60;35.20;;;;;;5007278;28;20977;-64
2022/05/18 07:38:10;;;;;;;5.00;3.47;;;40.50;34.40;;;;;;5008513;28;20465;-65
2022/05/18 07:40:36;;;;;;;3.60;3.40;;;39.60;36.00;;;;;;5009600;28;20491;-65
2022/05/18 07:43:04;;;;;;;3.67;3.37;;;39.30;35.50;;;;;;5009053;28;20528;-65
2022/05/18 07:45:31;;;;;;;3.47;3.17;;;39.20;35.70;;;;;;5002198;28;20297;-66
2022/05/18 07:47:57;;;;;;;3.47;3.20;;;39.10;35.00;;;;;;5010059;28;20527;-65
2022/05/18 07:50:24;;;;;;;2.90;2.70;;;39.40;35.30;;;;;;5024353;28;20439;-65
2022/05/18 07:52:51;;;;;;;4.90;3.40;;;39.20;34.80;;;;;;5009335;28;20437;-65
2022/05/18 07:55:17;;;;;;;4.90;3.10;;;38.60;34.80;;;;;;5007144;28;20795;-63
2022/05/18 07:57:42;;;;;;;4.13;3.83;;;38.60;35.10;;;;;;5009282;28;20457;-63
2022/05/18 08:00:11;;;;;;;4.23;3.43;;;38.60;34.30;;;;;;5002032;28;20228;-67
2022/05/18 08:02:37;;;;;;;3.80;3.50;;;38.30;35.10;;;;;;5007353;28;20651;-65
2022/05/18 08:05:04;;;;;;;3.40;3.20;;;38.60;34.90;;;;;;5000101;28;20524;-66
2022/05/18 08:07:30;;;;;;;3.40;3.10;;;39.00;35.20;;;;;;5004940;28;20222;-66
2022/05/18 08:15:24;;;;;;;3.13;2.93;;;40.50;33.60;;;;;;5004779;28;20457;-65
2022/05/18 08:17:50;;;;;;;3.97;3.50;;;40.30;33.40;;;;;;5007928;28;20462;-67
2022/05/18 08:20:19;;;;;;;7.00;6.40;;;40.00;32.80;;;;;;5008461;28;20195;-67
2022/05/18 08:22:45;;;;;;;3.70;3.40;;;39.70;33.30;;;;;;5003980;28;20453;-67
2022/05/18 08:25:11;;;;;;;4.00;3.60;;;39.30;34.00;;;;;;5007070;28;20438;-68
2022/05/18 08:27:45;;;;;;;4.77;3.20;;;40.10;33.20;;;;;;5006760;28;20651;-68
2022/05/18 08:30:13;;;;;;;3.73;3.40;;;40.40;33.30;;;;;;5008647;28;20191;-66
2022/05/18 08:32:39;;;;;;;4.20;3.90;;;40.50;32.10;;;;;;5008129;28;20938;-70
2022/05/18 08:35:05;;;;;;;4.00;3.60;;;39.60;33.00;;;;;;5004297;28;20449;-69
2022/05/18 08:37:40;;;;;;;3.60;3.30;;;39.20;33.70;;;;;;5005594;28;20477;-68
2022/05/18 08:40:11;;;;;;;5.07;3.57;;;38.60;34.00;;;;;;5001396;28;20468;-68
2022/05/18 08:42:37;;;;;;;3.80;3.60;;;38.90;34.30;;;;;;5008910;28;20946;-69
2022/05/18 08:45:03;;;;;;;3.40;3.20;;;39.80;33.60;;;;;;5009818;28;20466;-69
2022/05/18 08:47:42;;;;;;;4.40;4.10;;;39.90;32.60;;;;;;4995879;28;20281;-68
2022/05/18 08:50:14;;;;;;;3.97;3.67;;;39.60;33.10;;;;;;5009739;28;20421;-68
2022/05/18 08:53:05;;;;;;;3.57;3.27;;;39.20;33.10;;;;;;5011564;28;20450;-68
2022/05/18 08:55:39;;;;;;;3.50;3.30;;;39.20;33.30;;;;;;5013324;28;20450;-70
2022/05/18 08:58:11;;;;;;;3.83;3.53;;;39.50;33.20;;;;;;5006576;28;21067;-67
2022/05/18 09:00:45;;;;;;;3.63;3.33;;;39.40;32.60;;;;;;5012448;28;20437;-65
2022/05/18 09:03:16;;;;;;;3.37;3.07;;;39.50;32.30;;;;;;5010432;28;20492;-65
2022/05/18 09:05:48;;;;;;;4.20;3.90;;;39.30;32.50;;;;;;5014297;28;20434;-65
2022/05/18 09:08:36;;;;;;;4.20;3.83;;;39.10;33.00;;;;;;5012753;28;20473;-66
2022/05/18 09:11:16;;;;;;;5.57;5.07;;;39.30;32.80;;;;;;5004783;28;20444;-69
2022/05/18 09:13:41;;;;;;;4.90;3.10;;;39.50;32.80;;;;;;5011895;28;20444;-67
2022/05/18 09:16:45;;;;;;;3.17;2.97;;;39.20;32.50;;;;;;5011472;28;20442;-66
2022/05/18 09:19:39;;;;;;;3.10;2.90;;;39.60;32.70;;;;;;5007689;28;20210;-66
2022/05/18 09:22:42;;;;;;;3.97;3.60;;;39.10;32.40;;;;;;5008870;28;20441;-67
2022/05/18 09:25:22;;;;;;;3.40;3.20;;;38.40;33.80;;;;;;5002415;28;20441;-65
2022/05/18 09:28:08;;;;;;;4.03;3.63;;;38.50;33.00;;;;;;5010305;28;20449;-67
2022/05/18 09:30:41;;;;;;;4.17;3.77;;;39.10;33.10;;;;;;5009578;28;20441;-66
2022/05/18 09:33:27;;;;;;;4.57;2.80;;;39.50;33.40;;;;;;5007572;28;21085;-67
2022/05/18 09:36:08;;;;;;;4.17;3.87;;;39.50;31.80;;;;;;5011347;28;20532;-65
2022/05/18 09:38:41;;;;;;;3.90;3.60;;;39.70;32.00;;;;;;5010150;28;20472;-67
2022/05/18 09:41:12;;;;;;;3.50;3.20;;;39.60;32.20;;;;;;5010558;28;20544;-68
2022/05/18 09:43:51;;;;;;;4.13;3.80;;;40.00;32.20;;;;;;5009119;28;20542;-71
2022/05/18 09:46:26;;;;;;;3.93;3.50;;;39.80;32.80;;;;;;5011173;28;20479;-71
2022/05/18 09:49:00;;;;;;;3.27;3.00;;;40.20;32.60;;;;;;5011529;28;20484;-73
2022/05/18 09:51:26;;;;;;;2.93;2.70;;;41.50;30.50;;;;;;5012288;28;20451;-71
2022/05/18 09:53:53;;;;;;;3.17;2.97;;;42.10;28.90;;;;;;5008696;28;20907;-69
2022/05/18 09:56:40;;;;;;;2.50;2.40;;;42.20;29.40;;;;;;5011061;28;20203;-69
2022/05/18 09:59:18;;;;;;;3.37;3.10;;;43.20;28.20;;;;;;5005407;28;21021;-67
2022/05/18 10:07:27;;;;;;;4.93;3.63;;;41.40;28.50;;;;;;5010306;28;20468;-62
2022/05/18 10:10:08;;;;;;;3.33;3.10;;;41.90;28.70;;;;;;5005273;28;20445;-62
2022/05/18 10:12:54;;;;;;;3.43;3.13;;;42.00;29.20;;;;;;5010652;28;20830;-62
2022/05/18 10:15:25;;;;;;;4.10;3.70;;;41.30;29.70;;;;;;5008584;28;20460;-68
2022/05/18 10:17:57;;;;;;;3.30;3.10;;;40.00;30.00;;;;;;5009348;28;20489;-62
2022/05/18 10:20:32;;;;;;;3.10;2.80;;;38.50;30.60;;;;;;5006053;28;21048;-62
2022/05/18 10:22:59;;;;;;;3.40;3.10;;;36.90;32.30;;;;;;5011402;28;20425;-61
2022/05/18 10:25:49;;;;;;;4.73;3.60;;;35.20;34.90;;;;;;5020425;28;20844;-62
2022/05/18 10:28:23;;;;;;;3.60;3.30;;;33.90;37.80;;;;;;5002742;28;20871;-61
2022/05/18 10:30:57;;;;;;;4.20;3.50;;;33.10;39.10;;;;;;5009019;28;20473;-61
2022/05/18 10:33:44;;;;;;;3.10;2.70;;;32.20;40.30;;;;;;5008950;28;20486;-61
2022/05/18 10:36:24;;;;;;;3.07;2.87;;;31.50;40.70;;;;;;5001090;28;20437;-61
2022/05/18 10:38:56;;;;;;;3.23;2.93;;;30.70;40.70;;;;;;5009839;28;20505;-70
2022/05/18 10:41:28;;;;;;;3.77;2.60;;;30.40;41.70;;;;;;5009491;28;20465;-62
2022/05/18 10:44:16;;;;;;;4.90;2.93;;;30.10;41.90;;;;;;5007933;28;21088;-62
2022/05/18 10:46:47;;;;;;;3.93;3.63;;;30.20;42.00;;;;;;5010527;28;20440;-62
2022/05/18 10:49:25;;;;;;;3.37;3.13;;;30.50;42.30;;;;;;5008375;28;20523;-62
2022/05/18 10:51:50;;;;;;;2.73;2.53;;;30.60;42.40;;;;;;5010555;28;20792;-62
2022/05/18 10:54:28;;;;;;;3.80;3.50;;;30.40;42.50;;;;;;5010438;28;20523;-63
2022/05/18 10:57:10;;;;;;;5.70;3.27;;;31.60;42.40;;;;;;5008243;28;20214;-63
2022/05/18 10:59:51;;;;;;;2.33;2.13;;;33.40;39.40;;;;;;5024757;28;20964;-63
2022/05/18 11:02:27;;;;;;;2.80;2.60;;;34.60;36.20;;;;;;5011002;28;20941;-63
2022/05/18 11:05:22;;;;;;;2.93;2.73;;;35.30;35.10;;;;;;5008596;28;20456;-63
2022/05/18 11:07:49;;;;;;;3.30;3.00;;;36.40;34.50;;;;;;5008781;28;20477;-63
2022/05/18 11:10:15;;;;;;;4.23;3.10;;;36.00;35.20;;;;;;5008872;28;20813;-64
2022/05/18 11:13:10;;;;;;;3.20;2.93;;;36.60;34.70;;;;;;5008711;28;20568;-64
2022/05/18 11:15:43;;;;;;;3.37;2.93;;;36.30;34.70;;;;;;5005695;28;20532;-64
2022/05/18 11:18:17;;;;;;;3.80;3.10;;;36.40;34.50;;;;;;5017960;28;21153;-64
2022/05/18 11:21:14;;;;;;;3.00;2.80;;;37.10;34.10;;;;;;5008094;28;20929;-65
2022/05/18 11:24:03;;;;;;;2.93;2.73;;;37.50;33.30;;;;;;5007734;28;20440;-63
2022/05/18 11:26:55;;;;;;;4.30;3.20;;;37.60;32.70;;;;;;5008045;28;20445;-63
2022/05/18 11:29:49;;;;;;;2.60;2.50;;;38.10;32.00;;;;;;5006239;28;20845;-63
2022/05/18 11:32:17;;;;;;;3.10;2.90;;;37.00;32.70;;;;;;5007513;28;20896;-63
2022/05/18 11:34:56;;;;;;;5.00;4.23;;;36.70;33.30;;;;;;5010278;28;20438;-63
2022/05/18 11:37:40;;;;;;;2.93;2.73;;;36.50;34.30;;;;;;5008046;28;20453;-62
2022/05/18 11:40:56;;;;;;;3.10;2.90;;;35.50;33.20;;;;;;5002761;28;20552;-62
2022/05/18 11:43:35;;;;;;;3.20;3.00;;;35.10;34.30;;;;;;5005958;28;20449;-62
2022/05/18 11:46:10;;;;;;;4.40;3.00;;;34.90;35.70;;;;;;5004424;28;20449;-62
2022/05/18 11:48:49;;;;;;;5.10;3.10;;;34.60;36.20;;;;;;5009299;28;20461;-61
2022/05/18 11:51:24;;;;;;;3.17;2.80;;;34.00;37.30;;;;;;5001467;28;20813;-61
2022/05/18 11:54:19;;;;;;;3.80;3.50;;;33.00;38.30;;;;;;5009729;28;20462;-61
2022/05/18 11:57:03;;;;;;;5.30;3.10;;;32.50;39.10;;;;;;5008512;28;20604;-61
2022/05/18 12:00:00;;;;;;;3.10;2.80;;;31.60;39.80;;;;;;5004610;28;20475;-62
2022/05/18 12:02:32;;;;;;;3.60;2.90;;;31.00;41.40;;;;;;5002887;28;20480;-60
2022/05/18 12:05:23;;;;;;;3.37;3.17;;;30.50;42.50;;;;;;5006552;28;20438;-61
2022/05/18 12:07:54;;;;;;;3.10;2.80;;;30.10;42.60;;;;;;5008077;28;20454;-62
2022/05/18 12:10:47;;;;;;;3.83;3.53;;;29.70;43.70;;;;;;5009201;28;20445;-63
2022/05/18 12:13:29;;;;;;;5.50;3.17;;;29.70;44.10;;;;;;5002491;28;20516;-60
2022/05/18 12:16:01;;;;;;;3.40;3.20;;;29.50;44.00;;;;;;5005409;28;20459;-64
2022/05/18 12:18:50;;;;;;;3.13;2.93;;;29.50;44.80;;;;;;5005997;28;20473;-61
2022/05/18 12:21:25;;;;;;;3.60;3.20;;;29.50;44.10;;;;;;5008335;28;20450;-59
2022/05/18 12:23:57;;;;;;;3.13;2.93;;;29.40;43.70;;;;;;5001999;28;20441;-64
2022/05/18 12:26:23;;;;;;;3.00;2.80;;;29.30;44.40;;;;;;5008363;28;20440;-64
2022/05/18 12:28:50;;;;;;;4.17;2.90;;;29.20;44.90;;;;;;5009019;28;20606;-63
2022/05/18 12:31:17;;;;;;;2.50;2.37;;;29.10;45.90;;;;;;5008661;28;20544;-64
2022/05/18 12:33:55;;;;;;;3.43;3.13;;;29.10;44.80;;;;;;5004824;28;20959;-63
2022/05/18 12:36:33;;;;;;;3.27;2.97;;;29.00;45.20;;;;;;5004363;28;20647;-64
2022/05/18 12:39:33;;;;;;;3.57;2.80;;;28.80;45.10;;;;;;5004796;28;20474;-63
2022/05/18 12:42:01;;;;;;;3.13;2.83;;;28.90;46.20;;;;;;5007869;28;20465;-62
2022/05/18 12:44:41;;;;;;;4.63;4.00;;;29.00;45.40;;;;;;5008117;28;20437;-62
2022/05/18 12:47:40;;;;;;;2.97;2.77;;;28.90;45.20;;;;;;5003770;28;20542;-62
2022/05/18 12:50:16;;;;;;;2.63;2.43;;;28.90;45.30;;;;;;5006042;28;20799;-65
2022/05/18 12:53:02;;;;;;;3.87;3.40;;;28.70;46.00;;;;;;5003349;28;20442;-65
2022/05/18 12:55:50;;;;;;;3.37;3.07;;;28.50;46.60;;;;;;5004535;28;20462;-63
2022/05/18 12:58:36;;;;;;;4.10;3.20;;;28.60;47.20;;;;;;5003588;28;20940;-66
2022/05/18 13:01:16;;;;;;;4.83;3.03;;;28.70;46.90;;;;;;5006900;28;20467;-64
2022/05/18 13:03:53;;;;;;;3.10;2.90;;;28.70;46.80;;;;;;5016163;28;21022;-65
2022/05/18 13:06:35;;;;;;;4.03;3.73;;;28.70;46.10;;;;;;5021639;28;20437;-64
2022/05/18 13:09:25;;;;;;;3.30;3.00;;;28.70;46.60;;;;;;5006799;28;20597;-66
2022/05/18 13:12:12;;;;;;;3.27;2.90;;;28.80;46.70;;;;;;5006687;28;20530;-66
2022/05/18 13:14:54;;;;;;;3.00;2.80;;;28.70;45.60;;;;;;5007821;28;20433;-61
2022/05/18 13:17:22;;;;;;;3.43;2.77;;;28.40;46.20;;;;;;5004678;28;20872;-62
2022/05/18 13:19:57;;;;;;;3.50;3.20;;;28.40;47.00;;;;;;5009319;28;20471;-62
2022/05/18 13:22:22;;;;;;;3.27;2.97;;;28.50;46.10;;;;;;5003611;28;20446;-61